sensor_id;sensor_type;location;lat;lon;timestamp;pressure;altitude;pressure_sealevel;temperature;humidity
40245;BME280;25963;42.694;23.600;2023-07-13T00:01:12;95462.66;;;21.39;100.00
40245;BME280;25963;42.694;23.600;2023-07-13T00:03:37;95462.13;;;21.42;100.00
40245;BME280;25963;42.694;23.600;2023-07-13T00:06:07;95427.38;;;21.12;100.00
40245;BME280;25963;42.694;23.600;2023-07-13T00:08:33;95452.56;;;21.21;100.00
40245;BME280;25963;42.694;23.600;2023-07-13T00:11:00;95441.88;;;21.11;100.00
40245;BME280;25963;42.694;23.600;2023-07-13T00:13:25;95446.22;;;20.96;100.00
40245;BME280;25963;42.694;23.600;2023-07-13T00:15:51;95447.09;;;20.82;100.00
40245;BME280;25963;42.694;23.600;2023-07-13T00:18:16;95446.06;;;20.78;100.00
40245;BME280;25963;42.694;23.600;2023-07-13T00:20:42;95442.03;;;20.75;100.00
40245;BME280;25963;42.694;23.600;2023-07-13T00:23:08;95439.34;;;20.75;100.00
40245;BME280;25963;42.694;23.600;2023-07-13T00:25:33;95438.56;;;20.74;100.00
40245;BME280;25963;42.694;23.600;2023-07-13T00:28:00;95423.91;;;20.36;100.00
40245;BME280;25963;42.694;23.600;2023-07-13T00:30:25;95440.25;;;20.40;100.00
40245;BME280;25963;42.694;23.600;2023-07-13T00:32:51;95420.69;;;20.39;100.00
40245;BME280;25963;42.694;23.600;2023-07-13T00:35:16;95429.56;;;20.29;100.00
40245;BME280;25963;42.694;23.600;2023-07-13T00:37:42;95398.78;;;20.22;100.00
40245;BME280;25963;42.694;23.600;2023-07-13T00:40:10;95434.09;;;20.44;100.00
40245;BME280;25963;42.694;23.600;2023-07-13T00:42:37;95433.59;;;20.37;100.00
40245;BME280;25963;42.694;23.600;2023-07-13T00:47:33;95444.06;;;20.23;100.00
40245;BME280;25963;42.694;23.600;2023-07-13T00:49:59;95447.53;;;20.29;100.00
40245;BME280;25963;42.694;23.600;2023-07-13T00:52:25;95440.03;;;20.21;100.00
40245;BME280;25963;42.694;23.600;2023-07-13T00:54:51;95444.31;;;20.27;100.00
40245;BME280;25963;42.694;23.600;2023-07-13T00:57:19;95438.16;;;20.32;100.00
40245;BME280;25963;42.694;23.600;2023-07-13T00:59:48;95427.19;;;20.23;100.00
40245;BME280;25963;42.694;23.600;2023-07-13T01:02:14;95431.44;;;20.29;100.00
40245;BME280;25963;42.694;23.600;2023-07-13T01:04:41;95412.19;;;20.12;100.00
40245;BME280;25963;42.694;23.600;2023-07-13T01:07:09;95427.97;;;20.28;100.00
40245;BME280;25963;42.694;23.600;2023-07-13T01:09:35;95427.16;;;20.33;100.00
40245;BME280;25963;42.694;23.600;2023-07-13T01:12:01;95422.88;;;20.37;100.00
40245;BME280;25963;42.694;23.600;2023-07-13T01:14:28;95423.97;;;20.26;100.00
40245;BME280;25963;42.694;23.600;2023-07-13T01:16:54;95422.34;;;20.30;100.00
40245;BME280;25963;42.694;23.600;2023-07-13T01:19:36;95417.50;;;20.32;100.00
40245;BME280;25963;42.694;23.600;2023-07-13T01:22:05;95422.59;;;20.34;100.00
40245;BME280;25963;42.694;23.600;2023-07-13T01:24:34;95414.34;;;20.10;100.00
40245;BME280;25963;42.694;23.600;2023-07-13T01:27:00;95435.25;;;20.08;100.00
40245;BME280;25963;42.694;23.600;2023-07-13T01:29:25;95426.69;;;20.05;100.00
40245;BME280;25963;42.694;23.600;2023-07-13T01:31:50;95430.69;;;20.08;100.00
40245;BME280;25963;42.694;23.600;2023-07-13T01:34:16;95422.94;;;20.01;100.00
40245;BME280;25963;42.694;23.600;2023-07-13T01:36:42;95428.56;;;20.00;100.00
40245;BME280;25963;42.694;23.600;2023-07-13T01:39:07;95434.19;;;19.98;100.00
40245;BME280;25963;42.694;23.600;2023-07-13T01:41:33;95428.28;;;19.91;100.00
40245;BME280;25963;42.694;23.600;2023-07-13T01:43:59;95427.25;;;19.87;100.00
40245;BME280;25963;42.694;23.600;2023-07-13T01:46:24;95433.66;;;19.86;100.00
40245;BME280;25963;42.694;23.600;2023-07-13T01:48:50;95428.84;;;19.78;100.00
40245;BME280;25963;42.694;23.600;2023-07-13T01:51:15;95432.31;;;19.68;100.00
40245;BME280;25963;42.694;23.600;2023-07-13T01:53:41;95425.38;;;19.67;100.00
40245;BME280;25963;42.694;23.600;2023-07-13T01:56:06;95428.59;;;19.69;100.00
40245;BME280;25963;42.694;23.600;2023-07-13T01:58:32;95425.91;;;19.69;100.00
40245;BME280;25963;42.694;23.600;2023-07-13T02:00:57;95427.75;;;19.64;100.00
40245;BME280;25963;42.694;23.600;2023-07-13T02:03:22;95436.06;;;19.67;100.00
40245;BME280;25963;42.694;23.600;2023-07-13T02:05:48;95437.94;;;19.67;100.00
40245;BME280;25963;42.694;23.600;2023-07-13T02:08:13;95439.50;;;19.52;100.00
40245;BME280;25963;42.694;23.600;2023-07-13T02:10:39;95442.44;;;19.56;100.00
40245;BME280;25963;42.694;23.600;2023-07-13T02:13:06;95437.38;;;19.39;100.00
40245;BME280;25963;42.694;23.600;2023-07-13T02:15:32;95429.34;;;19.49;100.00
40245;BME280;25963;42.694;23.600;2023-07-13T02:17:57;95432.00;;;19.34;100.00
40245;BME280;25963;42.694;23.600;2023-07-13T02:20:24;95438.97;;;19.45;100.00
40245;BME280;25963;42.694;23.600;2023-07-13T02:22:49;95423.47;;;19.42;100.00
40245;BME280;25963;42.694;23.600;2023-07-13T02:25:15;95448.09;;;19.59;100.00
40245;BME280;25963;42.694;23.600;2023-07-13T02:27:40;95445.66;;;19.53;100.00
40245;BME280;25963;42.694;23.600;2023-07-13T02:30:06;95448.06;;;19.39;100.00
40245;BME280;25963;42.694;23.600;2023-07-13T02:32:32;95452.63;;;19.38;100.00
40245;BME280;25963;42.694;23.600;2023-07-13T02:34:59;95442.97;;;19.27;100.00
40245;BME280;25963;42.694;23.600;2023-07-13T02:37:24;95445.09;;;19.25;100.00
40245;BME280;25963;42.694;23.600;2023-07-13T02:39:50;95428.25;;;19.14;100.00
40245;BME280;25963;42.694;23.600;2023-07-13T02:42:15;95448.06;;;19.24;100.00
40245;BME280;25963;42.694;23.600;2023-07-13T02:44:41;95453.31;;;18.98;100.00
40245;BME280;25963;42.694;23.600;2023-07-13T02:47:06;95458.72;;;19.13;100.00
40245;BME280;25963;42.694;23.600;2023-07-13T02:49:32;95455.47;;;19.11;100.00
40245;BME280;25963;42.694;23.600;2023-07-13T02:51:57;95448.53;;;19.05;100.00
40245;BME280;25963;42.694;23.600;2023-07-13T02:54:23;95451.75;;;19.12;100.00
40245;BME280;25963;42.694;23.600;2023-07-13T02:56:48;95449.59;;;19.04;100.00
40245;BME280;25963;42.694;23.600;2023-07-13T02:59:14;95449.56;;;18.89;100.00
40245;BME280;25963;42.694;23.600;2023-07-13T03:01:39;95447.66;;;18.84;100.00
40245;BME280;25963;42.694;23.600;2023-07-13T03:04:06;95443.69;;;19.02;100.00
40245;BME280;25963;42.694;23.600;2023-07-13T03:06:32;95432.44;;;18.90;100.00
40245;BME280;25963;42.694;23.600;2023-07-13T03:08:58;95456.84;;;19.19;100.00
40245;BME280;25963;42.694;23.600;2023-07-13T03:11:25;95458.16;;;19.11;100.00
40245;BME280;25963;42.694;23.600;2023-07-13T03:13:51;95455.00;;;19.14;100.00
40245;BME280;25963;42.694;23.600;2023-07-13T03:16:17;95446.16;;;19.19;100.00
40245;BME280;25963;42.694;23.600;2023-07-13T03:18:42;95451.75;;;19.07;100.00
40245;BME280;25963;42.694;23.600;2023-07-13T03:21:08;95443.75;;;19.18;100.00
40245;BME280;25963;42.694;23.600;2023-07-13T03:23:34;95437.34;;;19.24;100.00
40245;BME280;25963;42.694;23.600;2023-07-13T03:26:09;95429.84;;;19.21;100.00
40245;BME280;25963;42.694;23.600;2023-07-13T03:28:35;95457.13;;;19.18;100.00
40245;BME280;25963;42.694;23.600;2023-07-13T03:31:15;95457.91;;;19.13;100.00
40245;BME280;25963;42.694;23.600;2023-07-13T03:33:41;95460.06;;;19.21;100.00
40245;BME280;25963;42.694;23.600;2023-07-13T03:36:11;95449.97;;;19.54;100.00
40245;BME280;25963;42.694;23.600;2023-07-13T03:38:36;95445.41;;;19.49;100.00
40245;BME280;25963;42.694;23.600;2023-07-13T03:41:02;95443.31;;;19.67;100.00
40245;BME280;25963;42.694;23.600;2023-07-13T03:43:27;95455.63;;;19.73;100.00
40245;BME280;25963;42.694;23.600;2023-07-13T03:45:54;95460.97;;;19.78;100.00
40245;BME280;25963;42.694;23.600;2023-07-13T03:48:19;95464.47;;;19.83;100.00
40245;BME280;25963;42.694;23.600;2023-07-13T03:50:44;95454.53;;;19.94;100.00
40245;BME280;25963;42.694;23.600;2023-07-13T03:53:10;95454.78;;;20.08;100.00
40245;BME280;25963;42.694;23.600;2023-07-13T03:55:36;95452.34;;;20.32;100.00
40245;BME280;25963;42.694;23.600;2023-07-13T04:00:56;95458.66;;;20.82;100.00
40245;BME280;25963;42.694;23.600;2023-07-13T04:03:23;95444.91;;;21.49;100.00
40245;BME280;25963;42.694;23.600;2023-07-13T04:05:48;95462.03;;;22.50;100.00
40245;BME280;25963;42.694;23.600;2023-07-13T04:08:14;95447.44;;;23.61;94.55
40245;BME280;25963;42.694;23.600;2023-07-13T04:10:40;95456.53;;;24.77;87.42
40245;BME280;25963;42.694;23.600;2023-07-13T04:13:06;95458.13;;;25.79;79.60
40245;BME280;25963;42.694;23.600;2023-07-13T04:15:32;95458.09;;;26.86;72.30
40245;BME280;25963;42.694;23.600;2023-07-13T04:17:58;95453.19;;;27.71;67.94
40245;BME280;25963;42.694;23.600;2023-07-13T04:20:25;95447.38;;;28.42;63.19
40245;BME280;25963;42.694;23.600;2023-07-13T04:22:50;95454.63;;;28.98;60.12
40245;BME280;25963;42.694;23.600;2023-07-13T04:25:16;95447.91;;;29.33;57.83
40245;BME280;25963;42.694;23.600;2023-07-13T04:27:42;95451.25;;;29.81;56.59
40245;BME280;25963;42.694;23.600;2023-07-13T04:30:08;95448.94;;;30.25;55.14
40245;BME280;25963;42.694;23.600;2023-07-13T04:32:33;95452.72;;;30.57;52.72
40245;BME280;25963;42.694;23.600;2023-07-13T04:34:59;95451.28;;;30.72;53.75
40245;BME280;25963;42.694;23.600;2023-07-13T04:37:27;95464.69;;;31.14;51.65
40245;BME280;25963;42.694;23.600;2023-07-13T04:39:52;95456.38;;;31.59;49.36
40245;BME280;25963;42.694;23.600;2023-07-13T04:42:18;95459.09;;;32.00;48.27
40245;BME280;25963;42.694;23.600;2023-07-13T04:44:50;95452.13;;;32.31;46.60
40245;BME280;25963;42.694;23.600;2023-07-13T04:47:16;95453.63;;;32.56;46.30
40245;BME280;25963;42.694;23.600;2023-07-13T04:49:42;95458.81;;;32.93;46.97
40245;BME280;25963;42.694;23.600;2023-07-13T04:52:08;95464.47;;;33.00;46.42
40245;BME280;25963;42.694;23.600;2023-07-13T04:54:34;95457.06;;;33.01;47.86
40245;BME280;25963;42.694;23.600;2023-07-13T04:57:00;95471.75;;;33.28;47.29
40245;BME280;25963;42.694;23.600;2023-07-13T04:59:26;95474.72;;;33.38;45.30
40245;BME280;25963;42.694;23.600;2023-07-13T05:01:51;95466.09;;;33.21;45.27
40245;BME280;25963;42.694;23.600;2023-07-13T05:04:17;95478.16;;;33.51;44.39
40245;BME280;25963;42.694;23.600;2023-07-13T05:06:42;95465.44;;;33.59;45.30
40245;BME280;25963;42.694;23.600;2023-07-13T05:09:08;95488.84;;;33.95;43.53
40245;BME280;25963;42.694;23.600;2023-07-13T05:11:33;95484.50;;;34.10;43.82
40245;BME280;25963;42.694;23.600;2023-07-13T05:13:59;95484.63;;;34.37;43.13
40245;BME280;25963;42.694;23.600;2023-07-13T05:16:27;95480.66;;;34.34;40.99
40245;BME280;25963;42.694;23.600;2023-07-13T05:18:53;95477.84;;;34.30;40.55
40245;BME280;25963;42.694;23.600;2023-07-13T05:21:18;95478.41;;;34.59;41.42
40245;BME280;25963;42.694;23.600;2023-07-13T05:23:44;95478.66;;;34.73;39.88
40245;BME280;25963;42.694;23.600;2023-07-13T05:26:10;95480.19;;;34.51;38.34
40245;BME280;25963;42.694;23.600;2023-07-13T05:28:36;95484.81;;;34.47;39.49
40245;BME280;25963;42.694;23.600;2023-07-13T05:31:01;95479.78;;;34.30;40.04
40245;BME280;25963;42.694;23.600;2023-07-13T05:33:27;95482.13;;;33.54;41.24
40245;BME280;25963;42.694;23.600;2023-07-13T05:35:52;95487.16;;;33.87;40.84
40245;BME280;25963;42.694;23.600;2023-07-13T05:38:18;95490.34;;;34.08;43.14
40245;BME280;25963;42.694;23.600;2023-07-13T05:40:44;95475.22;;;34.15;41.06
40245;BME280;25963;42.694;23.600;2023-07-13T05:43:10;95485.09;;;34.42;39.38
40245;BME280;25963;42.694;23.600;2023-07-13T05:45:36;95496.63;;;34.71;40.54
40245;BME280;25963;42.694;23.600;2023-07-13T05:48:01;95495.03;;;34.70;40.23
40245;BME280;25963;42.694;23.600;2023-07-13T05:50:26;95497.47;;;34.75;40.75
40245;BME280;25963;42.694;23.600;2023-07-13T05:52:52;95501.19;;;34.24;42.79
40245;BME280;25963;42.694;23.600;2023-07-13T05:55:18;95500.19;;;34.13;41.65
40245;BME280;25963;42.694;23.600;2023-07-13T05:57:44;95510.63;;;34.27;44.87
40245;BME280;25963;42.694;23.600;2023-07-13T06:00:10;95508.34;;;34.29;43.53
40245;BME280;25963;42.694;23.600;2023-07-13T06:02:35;95510.75;;;33.95;40.14
40245;BME280;25963;42.694;23.600;2023-07-13T06:05:01;95509.31;;;34.01;43.15
40245;BME280;25963;42.694;23.600;2023-07-13T06:07:26;95501.84;;;34.18;43.23
40245;BME280;25963;42.694;23.600;2023-07-13T06:09:52;95507.06;;;34.46;39.46
40245;BME280;25963;42.694;23.600;2023-07-13T06:12:17;95499.75;;;34.30;40.17
40245;BME280;25963;42.694;23.600;2023-07-13T06:14:43;95500.88;;;34.49;41.82
40245;BME280;25963;42.694;23.600;2023-07-13T06:17:09;95491.31;;;34.59;43.89
40245;BME280;25963;42.694;23.600;2023-07-13T06:19:35;95494.63;;;34.68;39.95
40245;BME280;25963;42.694;23.600;2023-07-13T06:22:00;95497.03;;;34.73;42.29
40245;BME280;25963;42.694;23.600;2023-07-13T06:24:26;95499.66;;;34.66;41.02
40245;BME280;25963;42.694;23.600;2023-07-13T06:26:52;95496.00;;;34.81;44.13
40245;BME280;25963;42.694;23.600;2023-07-13T06:29:17;95494.19;;;34.46;41.70
40245;BME280;25963;42.694;23.600;2023-07-13T06:31:43;95494.34;;;34.34;45.12
40245;BME280;25963;42.694;23.600;2023-07-13T06:34:08;95492.63;;;34.26;43.17
40245;BME280;25963;42.694;23.600;2023-07-13T06:36:34;95480.47;;;34.23;41.12
40245;BME280;25963;42.694;23.600;2023-07-13T06:39:02;95476.94;;;34.23;40.45
40245;BME280;25963;42.694;23.600;2023-07-13T06:41:27;95481.75;;;34.29;40.77
40245;BME280;25963;42.694;23.600;2023-07-13T06:43:53;95463.38;;;34.30;41.56
40245;BME280;25963;42.694;23.600;2023-07-13T06:46:21;95479.84;;;34.53;40.60
40245;BME280;25963;42.694;23.600;2023-07-13T06:48:46;95473.19;;;34.73;40.46
40245;BME280;25963;42.694;23.600;2023-07-13T06:51:12;95490.03;;;34.75;42.90
40245;BME280;25963;42.694;23.600;2023-07-13T06:53:37;95481.50;;;34.58;45.03
40245;BME280;25963;42.694;23.600;2023-07-13T06:56:03;95481.69;;;34.68;41.75
40245;BME280;25963;42.694;23.600;2023-07-13T06:58:28;95480.97;;;34.71;41.35
40245;BME280;25963;42.694;23.600;2023-07-13T07:00:54;95478.81;;;34.61;41.46
40245;BME280;25963;42.694;23.600;2023-07-13T07:03:19;95484.16;;;34.73;44.15
40245;BME280;25963;42.694;23.600;2023-07-13T07:05:45;95478.78;;;34.81;42.03
40245;BME280;25963;42.694;23.600;2023-07-13T07:08:11;95486.69;;;34.86;40.41
40245;BME280;25963;42.694;23.600;2023-07-13T07:10:36;95490.56;;;34.85;39.59
40245;BME280;25963;42.694;23.600;2023-07-13T07:13:02;95484.38;;;34.45;41.20
40245;BME280;25963;42.694;23.600;2023-07-13T07:15:28;95476.03;;;34.58;40.52
40245;BME280;25963;42.694;23.600;2023-07-13T07:17:54;95481.25;;;34.43;42.31
40245;BME280;25963;42.694;23.600;2023-07-13T07:20:19;95487.06;;;34.22;45.40
40245;BME280;25963;42.694;23.600;2023-07-13T07:22:45;95479.06;;;34.52;44.15
40245;BME280;25963;42.694;23.600;2023-07-13T07:25:11;95477.88;;;34.11;42.62
40245;BME280;25963;42.694;23.600;2023-07-13T07:27:37;95482.47;;;33.88;40.25
40245;BME280;25963;42.694;23.600;2023-07-13T07:30:03;95479.19;;;34.01;44.22
40245;BME280;25963;42.694;23.600;2023-07-13T07:32:29;95468.34;;;34.24;45.20
40245;BME280;25963;42.694;23.600;2023-07-13T07:34:56;95467.13;;;34.22;46.84
40245;BME280;25963;42.694;23.600;2023-07-13T07:37:22;95464.38;;;34.02;45.02
40245;BME280;25963;42.694;23.600;2023-07-13T07:39:47;95456.59;;;33.85;49.54
40245;BME280;25963;42.694;23.600;2023-07-13T07:42:13;95464.88;;;34.27;44.21
40245;BME280;25963;42.694;23.600;2023-07-13T07:44:40;95463.81;;;34.13;41.47
40245;BME280;25963;42.694;23.600;2023-07-13T07:47:07;95468.94;;;33.59;41.38
40245;BME280;25963;42.694;23.600;2023-07-13T07:49:33;95463.81;;;33.93;48.59
40245;BME280;25963;42.694;23.600;2023-07-13T07:51:58;95448.75;;;34.22;46.17
40245;BME280;25963;42.694;23.600;2023-07-13T07:54:23;95454.50;;;34.37;43.99
40245;BME280;25963;42.694;23.600;2023-07-13T07:56:49;95450.72;;;34.45;44.02
40245;BME280;25963;42.694;23.600;2023-07-13T07:59:14;95446.25;;;34.14;42.18
40245;BME280;25963;42.694;23.600;2023-07-13T08:01:40;95458.09;;;34.41;42.81
40245;BME280;25963;42.694;23.600;2023-07-13T08:04:05;95448.56;;;34.12;42.13
40245;BME280;25963;42.694;23.600;2023-07-13T08:06:34;95446.59;;;34.12;43.25
40245;BME280;25963;42.694;23.600;2023-07-13T08:09:00;95441.13;;;34.12;37.72
40245;BME280;25963;42.694;23.600;2023-07-13T08:11:27;95444.53;;;34.48;48.67
40245;BME280;25963;42.694;23.600;2023-07-13T08:13:52;95437.63;;;34.54;40.53
40245;BME280;25963;42.694;23.600;2023-07-13T08:16:17;95426.66;;;34.54;42.05
40245;BME280;25963;42.694;23.600;2023-07-13T08:18:43;95418.84;;;34.79;45.78
40245;BME280;25963;42.694;23.600;2023-07-13T08:21:09;95427.19;;;34.86;40.84
40245;BME280;25963;42.694;23.600;2023-07-13T08:23:35;95417.66;;;34.76;38.76
40245;BME280;25963;42.694;23.600;2023-07-13T08:26:01;95425.41;;;34.28;43.17
40245;BME280;25963;42.694;23.600;2023-07-13T08:28:27;95426.84;;;34.65;44.02
40245;BME280;25963;42.694;23.600;2023-07-13T08:30:53;95424.47;;;34.63;39.92
40245;BME280;25963;42.694;23.600;2023-07-13T08:33:20;95423.81;;;34.96;39.88
40245;BME280;25963;42.694;23.600;2023-07-13T08:35:49;95408.81;;;34.87;42.03
40245;BME280;25963;42.694;23.600;2023-07-13T08:38:15;95406.41;;;34.59;38.67
40245;BME280;25963;42.694;23.600;2023-07-13T08:40:42;95411.66;;;34.94;44.39
40245;BME280;25963;42.694;23.600;2023-07-13T08:43:16;95406.81;;;34.61;38.38
40245;BME280;25963;42.694;23.600;2023-07-13T08:45:46;95417.50;;;35.15;50.02
40245;BME280;25963;42.694;23.600;2023-07-13T08:48:28;95404.13;;;35.40;42.83
40245;BME280;25963;42.694;23.600;2023-07-13T08:51:10;95407.81;;;34.98;40.24
40245;BME280;25963;42.694;23.600;2023-07-13T08:54:02;95406.28;;;34.74;37.65
40245;BME280;25963;42.694;23.600;2023-07-13T08:56:30;95392.19;;;34.30;39.37
40245;BME280;25963;42.694;23.600;2023-07-13T08:59:18;95409.25;;;34.66;40.72
40245;BME280;25963;42.694;23.600;2023-07-13T09:04:48;95397.06;;;35.09;39.83
40245;BME280;25963;42.694;23.600;2023-07-13T09:10:14;95412.84;;;35.76;41.42
40245;BME280;25963;42.694;23.600;2023-07-13T09:12:51;95425.19;;;35.93;41.13
40245;BME280;25963;42.694;23.600;2023-07-13T09:15:30;95424.13;;;35.71;39.28
40245;BME280;25963;42.694;23.600;2023-07-13T09:18:02;95427.50;;;35.57;38.81
40245;BME280;25963;42.694;23.600;2023-07-13T09:20:57;95415.28;;;35.25;34.73
40245;BME280;25963;42.694;23.600;2023-07-13T09:23:27;95420.06;;;34.82;37.96
40245;BME280;25963;42.694;23.600;2023-07-13T09:26:00;95424.81;;;35.08;37.65
40245;BME280;25963;42.694;23.600;2023-07-13T09:28:29;95409.63;;;35.14;37.33
40245;BME280;25963;42.694;23.600;2023-07-13T09:33:29;95416.38;;;35.77;38.97
40245;BME280;25963;42.694;23.600;2023-07-13T09:35:59;95406.22;;;35.81;40.21
40245;BME280;25963;42.694;23.600;2023-07-13T09:38:27;95403.50;;;36.15;36.85
40245;BME280;25963;42.694;23.600;2023-07-13T09:41:08;95417.28;;;35.88;36.42
40245;BME280;25963;42.694;23.600;2023-07-13T09:46:34;95399.75;;;36.33;40.60
40245;BME280;25963;42.694;23.600;2023-07-13T09:49:00;95409.06;;;36.59;38.75
40245;BME280;25963;42.694;23.600;2023-07-13T09:51:25;95399.38;;;36.76;35.35
40245;BME280;25963;42.694;23.600;2023-07-13T09:53:51;95396.63;;;36.79;37.61
40245;BME280;25963;42.694;23.600;2023-07-13T09:56:25;95397.84;;;36.82;39.85
40245;BME280;25963;42.694;23.600;2023-07-13T09:58:51;95382.19;;;36.90;40.71
40245;BME280;25963;42.694;23.600;2023-07-13T10:01:31;95383.47;;;37.03;37.64
40245;BME280;25963;42.694;23.600;2023-07-13T10:03:58;95392.19;;;37.12;38.28
40245;BME280;25963;42.694;23.600;2023-07-13T10:06:24;95396.25;;;37.33;34.41
40245;BME280;25963;42.694;23.600;2023-07-13T10:08:52;95397.47;;;37.42;40.19
40245;BME280;25963;42.694;23.600;2023-07-13T10:11:26;95386.97;;;37.62;34.70
40245;BME280;25963;42.694;23.600;2023-07-13T10:13:54;95379.84;;;37.51;36.69
40245;BME280;25963;42.694;23.600;2023-07-13T10:16:26;95370.28;;;37.30;30.78
40245;BME280;25963;42.694;23.600;2023-07-13T10:18:58;95374.91;;;37.15;39.60
40245;BME280;25963;42.694;23.600;2023-07-13T10:21:30;95375.13;;;37.51;37.89
40245;BME280;25963;42.694;23.600;2023-07-13T10:24:19;95366.16;;;37.61;35.07
40245;BME280;25963;42.694;23.600;2023-07-13T10:29:44;95375.25;;;37.73;35.97
40245;BME280;25963;42.694;23.600;2023-07-13T10:32:12;95363.03;;;37.74;35.52
40245;BME280;25963;42.694;23.600;2023-07-13T10:34:39;95346.13;;;37.75;33.04
40245;BME280;25963;42.694;23.600;2023-07-13T10:37:07;95366.75;;;38.21;34.58
40245;BME280;25963;42.694;23.600;2023-07-13T10:39:41;95342.31;;;37.98;32.04
40245;BME280;25963;42.694;23.600;2023-07-13T10:42:13;95355.69;;;38.06;33.03
40245;BME280;25963;42.694;23.600;2023-07-13T10:44:40;95353.25;;;37.83;33.41
40245;BME280;25963;42.694;23.600;2023-07-13T10:47:08;95350.19;;;38.13;36.64
40245;BME280;25963;42.694;23.600;2023-07-13T10:49:37;95344.69;;;38.10;37.08
40245;BME280;25963;42.694;23.600;2023-07-13T10:52:04;95343.81;;;37.88;33.90
40245;BME280;25963;42.694;23.600;2023-07-13T10:54:32;95339.19;;;38.24;32.45
40245;BME280;25963;42.694;23.600;2023-07-13T10:57:07;95335.28;;;38.43;32.81
40245;BME280;25963;42.694;23.600;2023-07-13T10:59:36;95313.59;;;38.17;31.85
40245;BME280;25963;42.694;23.600;2023-07-13T11:02:10;95327.41;;;38.52;33.69
40245;BME280;25963;42.694;23.600;2023-07-13T11:04:45;95329.34;;;38.77;37.87
40245;BME280;25963;42.694;23.600;2023-07-13T11:07:29;95321.13;;;38.63;32.80
40245;BME280;25963;42.694;23.600;2023-07-13T11:09:57;95312.44;;;38.93;33.51
40245;BME280;25963;42.694;23.600;2023-07-13T11:17:48;95302.97;;;38.08;36.13
40245;BME280;25963;42.694;23.600;2023-07-13T11:25:36;95298.25;;;38.05;30.89
40245;BME280;25963;42.694;23.600;2023-07-13T11:30:47;95297.88;;;38.13;32.90
40245;BME280;25963;42.694;23.600;2023-07-13T11:36:03;95294.72;;;38.33;32.65
40245;BME280;25963;42.694;23.600;2023-07-13T11:38:40;95275.44;;;38.69;35.60
40245;BME280;25963;42.694;23.600;2023-07-13T11:41:15;95291.16;;;38.79;36.02
40245;BME280;25963;42.694;23.600;2023-07-13T11:43:42;95280.13;;;38.97;34.37
40245;BME280;25963;42.694;23.600;2023-07-13T11:46:22;95289.09;;;39.30;30.38
40245;BME280;25963;42.694;23.600;2023-07-13T11:48:48;95287.53;;;39.32;35.44
40245;BME280;25963;42.694;23.600;2023-07-13T11:51:24;95280.81;;;39.33;31.50
40245;BME280;25963;42.694;23.600;2023-07-13T11:53:53;95283.63;;;39.08;33.05
40245;BME280;25963;42.694;23.600;2023-07-13T11:56:19;95274.56;;;39.04;31.71
40245;BME280;25963;42.694;23.600;2023-07-13T11:58:49;95281.72;;;38.73;27.69
40245;BME280;25963;42.694;23.600;2023-07-13T12:01:24;95272.28;;;38.31;29.33
40245;BME280;25963;42.694;23.600;2023-07-13T12:03:51;95263.63;;;38.65;30.51
40245;BME280;25963;42.694;23.600;2023-07-13T12:06:29;95247.13;;;38.14;28.80
40245;BME280;25963;42.694;23.600;2023-07-13T12:09:03;95266.00;;;38.12;27.45
40245;BME280;25963;42.694;23.600;2023-07-13T12:11:40;95254.19;;;38.58;31.24
40245;BME280;25963;42.694;23.600;2023-07-13T12:14:14;95255.38;;;38.57;30.23
40245;BME280;25963;42.694;23.600;2023-07-13T12:16:40;95245.53;;;38.56;32.13
40245;BME280;25963;42.694;23.600;2023-07-13T12:19:36;95249.41;;;38.84;29.44
40245;BME280;25963;42.694;23.600;2023-07-13T12:22:01;95224.16;;;39.00;25.72
40245;BME280;25963;42.694;23.600;2023-07-13T12:24:26;95217.44;;;39.08;25.61
40245;BME280;25963;42.694;23.600;2023-07-13T12:26:58;95231.13;;;39.37;27.23
40245;BME280;25963;42.694;23.600;2023-07-13T12:29:24;95228.94;;;38.89;26.90
40245;BME280;25963;42.694;23.600;2023-07-13T12:31:50;95225.75;;;39.04;26.57
40245;BME280;25963;42.694;23.600;2023-07-13T12:34:20;95225.66;;;39.22;24.86
40245;BME280;25963;42.694;23.600;2023-07-13T12:41:39;95223.25;;;39.35;29.35
40245;BME280;25963;42.694;23.600;2023-07-13T12:44:11;95220.13;;;39.26;28.49
40245;BME280;25963;42.694;23.600;2023-07-13T12:46:37;95216.22;;;39.13;28.45
40245;BME280;25963;42.694;23.600;2023-07-13T12:49:06;95223.41;;;38.99;25.83
40245;BME280;25963;42.694;23.600;2023-07-13T12:51:32;95200.59;;;38.85;26.41
40245;BME280;25963;42.694;23.600;2023-07-13T12:54:16;95206.44;;;39.01;30.26
40245;BME280;25963;42.694;23.600;2023-07-13T12:56:42;95202.78;;;39.25;27.91
40245;BME280;25963;42.694;23.600;2023-07-13T12:59:16;95197.63;;;39.38;27.80
40245;BME280;25963;42.694;23.600;2023-07-13T13:01:42;95184.69;;;39.21;27.08
40245;BME280;25963;42.694;23.600;2023-07-13T13:04:09;95177.66;;;39.06;26.00
40245;BME280;25963;42.694;23.600;2023-07-13T13:06:38;95177.63;;;39.13;26.88
40245;BME280;25963;42.694;23.600;2023-07-13T13:09:11;95189.38;;;39.24;29.13
40245;BME280;25963;42.694;23.600;2023-07-13T13:11:38;95185.53;;;39.03;26.20
40245;BME280;25963;42.694;23.600;2023-07-13T13:14:05;95182.41;;;38.98;28.92
40245;BME280;25963;42.694;23.600;2023-07-13T13:16:32;95183.22;;;38.98;26.87
40245;BME280;25963;42.694;23.600;2023-07-13T13:19:05;95173.72;;;39.07;30.38
40245;BME280;25963;42.694;23.600;2023-07-13T13:21:35;95174.59;;;38.89;28.16
40245;BME280;25963;42.694;23.600;2023-07-13T13:24:01;95188.69;;;39.06;27.82
40245;BME280;25963;42.694;23.600;2023-07-13T13:26:26;95178.59;;;38.63;26.53
40245;BME280;25963;42.694;23.600;2023-07-13T13:28:52;95175.47;;;38.29;25.23
40245;BME280;25963;42.694;23.600;2023-07-13T13:31:17;95171.56;;;38.41;28.79